Terminal Aerodrome Forecast
Issued by NWS Paducah, KY

Home | Current Version | Previous Version | Text Only | Print | Product List | Glossary On
Versions: 1 2 3 4 5 6 7 8 9 10 11 12 13 14 15 16 17 18
000
FTUS43 KPAH 271313 AAA
TAFPAH
TAF AMD
KPAH 271313Z 2713/2812 34012KT P6SM SCT015 BKN024
      TEMPO 2715/2719 BKN035
     FM271900 36011KT P6SM BKN035
     FM272300 36008KT P6SM SCT035
     FM280200 VRB03KT P6SM SKC=

USA.gov is the U.S. government's official web portal to all federal, state and local government web resources and services.